Time;durP1;ratioP1;P1;durP2;ratioP2;P2;SDS_P1;SDS_P2;PMS_P1;PMS_P2;Temp;Humidity;BMP_temperature;BMP_pressure;BME280_temperature;BME280_humidity;BME280_pressure;Samples;Min_cycle;Max_cycle;Signal;HPM_P1;HPM_P2
2023/07/01 00:00:58;;;;;;;3.70;1.58;;;;;;;-146.25;65.75;52064.06;2064800;28;20182;-70
2023/07/01 00:02:00;;;;;;;3.42;1.58;;;;;;;-146.25;65.94;52076.22;2064745;28;20047;-71
2023/07/01 00:03:04;;;;;;;3.20;1.45;;;;;;;-146.25;66.31;52080.28;2064863;28;20181;-71
2023/07/01 00:04:06;;;;;;;5.32;1.77;;;;;;;-146.25;66.65;52037.72;2064608;28;28627;-71
2023/07/01 00:05:08;;;;;;;2.38;1.40;;;;;;;-146.25;66.20;52064.06;2063037;28;35188;-71
2023/07/01 00:06:10;;;;;;;7.68;1.98;;;;;;;-146.25;66.88;52068.13;2064519;28;20046;-71
2023/07/01 00:07:12;;;;;;;3.75;1.45;;;;;;;-146.25;66.55;52074.22;2063883;28;37600;-71
2023/07/01 00:08:13;;;;;;;6.75;1.98;;;;;;;-146.25;67.11;52072.19;2064339;28;35439;-70
2023/07/01 00:09:15;;;;;;;2.38;1.75;;;;;;;-146.25;66.70;52043.78;2064081;28;33593;-71
2023/07/01 00:10:17;;;;;;;4.85;2.00;;;;;;;-146.25;66.97;52058.00;2064136;28;36828;-71
2023/07/01 00:11:21;;;;;;;3.05;1.88;;;;;;;-146.25;66.74;52043.78;2063799;28;32701;-71
2023/07/01 00:12:23;;;;;;;5.10;1.80;;;;;;;-146.25;67.61;52066.09;2064052;28;35475;-69
2023/07/01 00:13:27;;;;;;;4.00;1.60;;;;;;;-146.25;67.34;52098.53;2064765;28;20934;-71
2023/07/01 00:14:31;;;;;;;2.47;1.83;;;;;;;-146.25;67.52;52068.13;2071686;28;34240;-71
2023/07/01 00:15:34;;;;;;;7.00;2.03;;;;;;;-146.25;67.76;52074.22;2071475;28;31363;-71
2023/07/01 00:16:35;;;;;;;3.70;1.52;;;;;;;-146.25;67.67;52039.75;2065356;28;20510;-71
2023/07/01 00:17:37;;;;;;;4.45;1.85;;;;;;;-146.25;68.32;52039.75;2063862;28;37218;-70
2023/07/01 00:18:43;;;;;;;7.43;2.10;;;;;;;-146.25;67.60;52055.97;2065115;28;20050;-71
2023/07/01 00:19:45;;;;;;;2.80;1.80;;;;;;;-146.25;67.68;52066.09;2063870;28;32950;-71
2023/07/01 00:20:46;;;;;;;5.05;1.88;;;;;;;-146.25;68.26;52070.16;2064272;28;34214;-71
2023/07/01 00:21:48;;;;;;;5.32;1.90;;;;;;;-146.25;67.85;52055.97;2064143;28;31831;-71
2023/07/01 00:22:50;;;;;;;2.92;1.60;;;;;;;-146.25;68.75;52072.19;2064230;28;36721;-71
2023/07/01 00:23:52;;;;;;;4.22;2.13;;;;;;;-146.25;68.24;52078.25;2063633;28;37182;-70
2023/07/01 00:24:54;;;;;;;2.97;1.90;;;;;;;-146.25;68.98;52072.19;2064530;28;32230;-70
2023/07/01 00:25:55;;;;;;;4.68;1.98;;;;;;;-146.25;68.95;52078.25;2063728;28;33781;-70
2023/07/01 00:26:57;;;;;;;4.88;2.00;;;;;;;-146.25;69.10;52051.91;2064209;28;36212;-70
2023/07/01 00:27:59;;;;;;;5.18;1.95;;;;;;;-146.25;68.85;52035.69;2071697;28;20054;-70
2023/07/01 00:29:03;;;;;;;5.25;1.92;;;;;;;-146.25;69.13;52051.91;2070576;28;31106;-70
2023/07/01 00:30:07;;;;;;;3.33;1.80;;;;;;;-146.25;69.53;52076.22;2064463;28;20042;-70
2023/07/01 00:31:12;;;;;;;5.45;2.22;;;;;;;-146.25;69.32;52088.41;2065096;28;24872;-71
2023/07/01 00:32:13;;;;;;;5.07;2.25;;;;;;;-146.25;69.84;52055.97;2071638;28;27040;-70
2023/07/01 00:33:15;;;;;;;5.47;2.20;;;;;;;-146.25;69.65;52074.22;2071695;28;32681;-71
2023/07/01 00:34:17;;;;;;;5.68;2.03;;;;;;;-146.25;69.51;52039.75;2064015;28;28442;-70
2023/07/01 00:35:19;;;;;;;9.10;2.25;;;;;;;-146.25;70.26;52078.25;2063777;28;26506;-70
2023/07/01 00:36:21;;;;;;;3.92;2.45;;;;;;;-146.25;69.50;52051.91;2063381;28;28670;-70
2023/07/01 00:37:25;;;;;;;7.57;2.30;;;;;;;-146.25;69.53;52076.22;2064159;28;24446;-70
2023/07/01 00:38:26;;;;;;;4.47;1.92;;;;;;;-146.25;70.19;52055.97;2072003;28;20081;-70
2023/07/01 00:39:28;;;;;;;7.10;1.92;;;;;;;-146.25;70.10;52029.59;2063279;28;27371;-71
2023/07/01 00:40:30;;;;;;;3.67;1.98;;;;;;;-146.25;69.39;52055.97;2063642;28;20157;-70
2023/07/01 00:41:32;;;;;;;3.78;2.08;;;;;;;-146.25;70.48;52055.97;2064456;28;20473;-70
2023/07/01 00:42:36;;;;;;;3.53;2.42;;;;;;;-146.25;70.55;52086.38;2071086;28;36242;-70
2023/07/01 00:43:38;;;;;;;7.15;2.30;;;;;;;-146.25;70.24;52035.69;2070852;28;25260;-70
2023/07/01 00:44:41;;;;;;;3.47;2.00;;;;;;;-146.25;70.76;52013.38;2064230;28;23908;-70
2023/07/01 00:45:43;;;;;;;4.70;2.30;;;;;;;-146.25;70.95;52078.25;2064185;28;23069;-70
2023/07/01 00:46:45;;;;;;;3.78;2.30;;;;;;;-146.25;70.53;52062.03;2064522;28;20035;-70
2023/07/01 00:47:46;;;;;;;3.92;2.22;;;;;;;-146.25;70.44;52072.19;2064596;28;25176;-71
2023/07/01 00:48:49;;;;;;;3.60;2.05;;;;;;;-146.25;70.47;52045.81;2064135;28;27272;-70
2023/07/01 00:49:51;;;;;;;5.90;2.50;;;;;;;-146.25;71.19;52049.88;2072033;28;22017;-70
2023/07/01 00:50:54;;;;;;;4.05;2.53;;;;;;;-146.25;71.10;52080.28;2062958;28;26304;-70
2023/07/01 00:51:57;;;;;;;4.85;2.72;;;;;;;-146.25;71.13;52078.25;2064339;28;20039;-70
2023/07/01 00:53:01;;;;;;;3.20;1.92;;;;;;;-146.25;70.47;52066.09;2063629;28;20919;-71
2023/07/01 00:54:06;;;;;;;4.72;2.90;;;;;;;-146.25;70.76;52078.25;2063268;28;31879;-70
2023/07/01 00:55:10;;;;;;;2.30;2.10;;;;;;;-146.25;71.16;52074.22;2063627;28;27548;-71
2023/07/01 00:56:12;;;;;;;5.63;2.70;;;;;;;-146.25;71.50;52066.09;2071396;28;29142;-71
2023/07/01 00:57:13;;;;;;;5.72;2.40;;;;;;;-146.25;71.08;52066.09;2071469;28;24603;-69
2023/07/01 00:58:15;;;;;;;4.18;2.70;;;;;;;-146.25;71.32;52088.41;2064311;28;29961;-70
2023/07/01 00:59:17;;;;;;;3.78;2.28;;;;;;;-146.25;71.65;52055.97;2063610;28;30987;-70
2023/07/01 01:00:19;;;;;;;5.65;2.63;;;;;;;-146.25;71.45;52092.44;2065018;28;20043;-70
2023/07/01 01:01:28;;;;;;;4.10;2.60;;;;;;;-146.25;71.49;52084.34;2071204;28;27347;-70
2023/07/01 01:02:44;;;;;;;4.00;2.60;;;;;;;-146.25;71.69;52051.91;2055634;28;21458;-71
2023/07/01 01:04:03;;;;;;;5.53;2.53;;;;;;;-146.25;71.62;52068.13;2058955;28;20164;-71
2023/07/01 01:05:15;;;;;;;3.65;2.30;;;;;;;-146.25;71.86;52072.19;2071704;28;32337;-70
2023/07/01 01:07:11;;;;;;;4.72;2.50;;;;;;;-146.25;72.18;52070.16;2064212;28;20249;-71
2023/07/01 01:08:28;;;;;;;4.63;2.63;;;;;;;-146.25;71.69;52066.09;2064014;28;28391;-71
2023/07/01 01:09:53;;;;;;;7.97;3.00;;;;;;;-146.25;72.71;52064.06;2064509;28;20181;-71
2023/07/01 01:10:59;;;;;;;6.32;2.65;;;;;;;-146.25;72.89;52082.31;2063491;28;20915;-70
2023/07/01 01:12:05;;;;;;;4.53;2.28;;;;;;;-146.25;71.76;52047.84;2055727;28;21899;-71
2023/07/01 01:13:08;;;;;;;4.70;2.90;;;;;;;-146.25;72.58;52074.22;2063983;28;37222;-71
2023/07/01 01:14:13;;;;;;;5.90;2.90;;;;;;;-146.25;72.59;52070.16;2064214;28;21166;-71
2023/07/01 01:15:14;;;;;;;4.40;2.38;;;;;;;-146.25;73.04;52062.03;2071635;28;30895;-70
2023/07/01 01:16:16;;;;;;;4.03;2.83;;;;;;;-146.25;72.47;52096.50;2055072;28;28356;-71
2023/07/01 01:17:19;;;;;;;3.10;2.40;;;;;;;-146.25;72.47;52096.50;2055523;28;32847;-70
2023/07/01 01:18:24;;;;;;;4.85;2.35;;;;;;;-146.25;72.49;52094.47;2070952;28;30788;-71
2023/07/01 01:19:39;;;;;;;5.03;2.60;;;;;;;-146.25;73.12;52090.44;2063666;28;20058;-71
2023/07/01 01:20:41;;;;;;;6.55;3.30;;;;;;;-146.25;72.82;52080.28;2066061;28;20039;-71
2023/07/01 01:22:09;;;;;;;6.85;2.95;;;;;;;-146.25;72.73;52084.34;2071503;28;20085;-71
2023/07/01 01:23:17;;;;;;;4.43;3.10;;;;;;;-146.25;73.14;52076.22;2069232;28;20169;-70
2023/07/01 01:24:21;;;;;;;4.32;2.72;;;;;;;-146.25;73.05;52055.97;2063440;28;27969;-70
2023/07/01 01:25:52;;;;;;;6.47;3.22;;;;;;;-146.25;73.33;52082.31;2064177;28;27131;-70
2023/07/01 01:26:59;;;;;;;6.28;3.03;;;;;;;-146.25;72.98;52064.06;2063819;28;28819;-69
2023/07/01 01:28:03;;;;;;;4.80;3.05;;;;;;;-146.25;73.35;52068.13;2068489;28;20844;-70
2023/07/01 01:29:06;;;;;;;5.70;3.00;;;;;;;-146.25;73.47;52064.06;2063355;28;20043;-70
2023/07/01 01:30:09;;;;;;;5.97;3.00;;;;;;;-146.25;73.62;52072.19;2063615;28;30101;-70
2023/07/01 01:31:13;;;;;;;6.03;3.30;;;;;;;-146.25;73.84;52047.84;2063187;28;29882;-68
2023/07/01 01:32:15;;;;;;;6.68;2.85;;;;;;;-146.25;73.91;52072.19;2063069;28;29926;-70
2023/07/01 01:33:17;;;;;;;7.03;2.65;;;;;;;-146.25;73.92;52092.44;2071550;28;20037;-71
2023/07/01 01:34:19;;;;;;;5.07;3.65;;;;;;;-146.25;74.39;52078.25;2071444;28;20269;-70
2023/07/01 01:35:22;;;;;;;3.75;3.00;;;;;;;-146.25;73.87;52108.66;2063486;28;34789;-71
2023/07/01 01:36:50;;;;;;;6.47;2.88;;;;;;;-146.25;74.22;52068.13;2063718;28;28720;-70
2023/07/01 01:38:10;;;;;;;5.78;3.50;;;;;;;-146.25;74.22;52088.41;2064643;28;20097;-71
2023/07/01 01:39:20;;;;;;;5.85;2.60;;;;;;;-146.25;74.26;52086.38;2071163;28;29082;-71
2023/07/01 01:40:37;;;;;;;7.03;3.28;;;;;;;-146.25;73.86;52084.34;2063413;28;20039;-70
2023/07/01 01:41:57;;;;;;;5.07;3.30;;;;;;;-146.25;74.23;52053.94;2063005;28;32688;-71
2023/07/01 01:43:08;;;;;;;5.40;3.03;;;;;;;-146.25;73.86;52084.34;2071007;28;28407;-71
2023/07/01 01:44:22;;;;;;;5.93;3.45;;;;;;;-146.25;74.06;52082.31;2063535;28;31974;-71
2023/07/01 01:45:24;;;;;;;5.82;2.97;;;;;;;-146.25;74.01;52080.28;2063113;28;29732;-70
2023/07/01 01:46:27;;;;;;;5.38;3.08;;;;;;;-146.25;73.72;52082.31;2071415;28;28620;-71
2023/07/01 01:47:33;;;;;;;5.28;2.63;;;;;;;-146.25;73.83;52088.41;2063581;28;20043;-71
2023/07/01 01:48:39;;;;;;;6.57;3.17;;;;;;;-146.25;73.70;52064.06;2064626;28;21005;-70
2023/07/01 01:49:44;;;;;;;5.30;3.28;;;;;;;-146.25;74.09;52033.66;2063204;28;32693;-70
2023/07/01 01:50:50;;;;;;;6.07;3.40;;;;;;;-146.25;73.54;52039.75;2064100;28;27311;-72
2023/07/01 01:51:54;;;;;;;3.85;3.30;;;;;;;-146.25;74.02;52060.00;2071593;28;20046;-70
2023/07/01 01:52:58;;;;;;;9.75;3.35;;;;;;;-146.25;74.18;52086.38;2071431;28;20349;-70
2023/07/01 01:54:04;;;;;;;5.93;3.22;;;;;;;-146.25;73.54;52092.44;2071157;28;34345;-70
2023/07/01 01:55:10;;;;;;;4.07;3.00;;;;;;;-146.25;73.65;52055.97;2070448;28;26033;-71
2023/07/01 01:56:12;;;;;;;5.22;3.17;;;;;;;-146.25;73.62;52072.19;2071416;28;22859;-71
2023/07/01 01:57:17;;;;;;;3.97;3.13;;;;;;;-146.25;73.36;52060.00;2063340;28;20174;-68
2023/07/01 01:58:19;;;;;;;4.15;3.00;;;;;;;-146.25;73.00;52094.47;2063694;28;20997;-70
2023/07/01 01:59:22;;;;;;;8.68;3.50;;;;;;;-146.25;73.54;52100.56;2063089;28;20039;-70
2023/07/01 02:00:23;;;;;;;6.25;3.47;;;;;;;-146.25;73.94;52060.00;2063242;28;23287;-71
2023/07/01 02:01:26;;;;;;;4.60;3.20;;;;;;;-146.25;73.66;52076.22;2079529;28;20280;-71
2023/07/01 02:02:28;;;;;;;4.68;3.42;;;;;;;-146.25;73.70;52064.06;2072199;28;20045;-71
2023/07/01 02:03:30;;;;;;;5.63;2.80;;;;;;;-146.25;74.04;52062.03;2071214;28;29212;-69
2023/07/01 02:04:34;;;;;;;4.05;3.05;;;;;;;-146.25;74.71;52106.66;2063735;28;20869;-71
2023/07/01 02:05:35;;;;;;;4.47;3.55;;;;;;;-146.25;74.42;52088.41;2063061;28;29837;-70
2023/07/01 02:06:37;;;;;;;4.72;3.15;;;;;;;-146.25;74.28;52098.53;2071288;28;27992;-70
2023/07/01 02:07:39;;;;;;;4.55;3.03;;;;;;;-146.25;74.05;52051.91;2070912;28;31864;-68
2023/07/01 02:08:41;;;;;;;6.40;3.30;;;;;;;-146.25;74.09;52060.00;2063553;28;20050;-71
2023/07/01 02:09:42;;;;;;;5.63;2.75;;;;;;;-146.25;75.05;52080.28;2071353;28;21007;-70
2023/07/01 02:10:44;;;;;;;4.75;3.08;;;;;;;-146.25;74.22;52064.06;2072041;28;25995;-70
2023/07/01 02:11:46;;;;;;;5.03;3.20;;;;;;;-146.25;74.75;52070.16;2078792;28;20180;-71
2023/07/01 02:12:50;;;;;;;4.25;2.80;;;;;;;-146.25;75.04;52066.09;2071112;28;35750;-70
2023/07/01 02:13:52;;;;;;;4.97;3.40;;;;;;;-146.25;74.67;52051.91;2071068;28;23928;-70
2023/07/01 02:14:54;;;;;;;5.03;3.20;;;;;;;-146.25;74.67;52035.69;2071411;28;20068;-70
2023/07/01 02:15:56;;;;;;;6.43;3.08;;;;;;;-146.25;74.64;52084.34;2071641;28;20128;-70
2023/07/01 02:17:00;;;;;;;3.95;3.17;;;;;;;-146.25;74.80;52060.00;2071567;28;20256;-70
2023/07/01 02:18:04;;;;;;;4.10;3.15;;;;;;;-146.25;75.31;52047.84;2063414;28;20074;-70
2023/07/01 02:19:11;;;;;;;4.13;3.08;;;;;;;-146.25;74.41;52072.19;2071671;28;20043;-70
2023/07/01 02:20:13;;;;;;;4.95;3.05;;;;;;;-146.25;74.53;52090.44;2071983;28;26517;-70
2023/07/01 02:21:14;;;;;;;7.53;3.20;;;;;;;-146.25;74.90;52055.97;2071971;28;25810;-70
2023/07/01 02:22:16;;;;;;;7.38;3.28;;;;;;;-146.25;74.47;52062.03;2071442;28;33570;-69
2023/07/01 02:23:18;;;;;;;4.25;3.00;;;;;;;-146.25;74.44;52076.22;2070635;28;30177;-71
2023/07/01 02:24:20;;;;;;;7.47;3.08;;;;;;;-146.25;74.75;52094.47;2071209;28;22641;-70
2023/07/01 02:25:24;;;;;;;4.25;3.15;;;;;;;-146.25;74.30;52088.41;2071029;28;21625;-70
2023/07/01 02:26:28;;;;;;;8.05;3.15;;;;;;;-146.25;74.54;52066.09;2063771;28;35905;-70
2023/07/01 02:27:31;;;;;;;3.92;2.80;;;;;;;-146.25;74.35;52064.06;2063956;28;27181;-71
2023/07/01 02:28:32;;;;;;;6.78;3.03;;;;;;;-146.25;74.62;52096.50;2063370;28;30618;-71
2023/07/01 02:29:34;;;;;;;5.70;3.20;;;;;;;-146.25;74.43;52082.31;2063666;28;20042;-70
2023/07/01 02:30:36;;;;;;;5.35;3.00;;;;;;;-146.25;74.26;52088.41;2070788;28;20042;-70
2023/07/01 02:31:38;;;;;;;5.97;3.08;;;;;;;-146.25;74.63;52088.41;2070520;28;36820;-70
2023/07/01 02:32:40;;;;;;;4.85;2.85;;;;;;;-146.25;74.34;52072.19;2071120;28;20097;-70
2023/07/01 02:33:42;;;;;;;4.28;3.03;;;;;;;-146.25;74.38;52068.13;2071197;28;20860;-71
2023/07/01 02:34:43;;;;;;;8.13;3.40;;;;;;;-146.25;74.27;52066.09;2070842;28;21822;-70
2023/07/01 02:35:45;;;;;;;3.88;3.15;;;;;;;-146.25;74.67;52049.88;2071989;28;20046;-71
2023/07/01 02:36:47;;;;;;;6.47;2.97;;;;;;;-146.25;74.30;52112.72;2063307;28;30619;-71
2023/07/01 02:37:49;;;;;;;5.53;3.15;;;;;;;-146.25;74.19;52039.75;2063499;28;30577;-71
2023/07/01 02:38:51;;;;;;;6.40;2.92;;;;;;;-146.25;73.93;52092.44;2063844;28;20050;-70
2023/07/01 02:39:53;;;;;;;7.22;3.30;;;;;;;-146.25;74.37;52084.34;2063439;28;28653;-70
2023/07/01 02:40:55;;;;;;;5.07;3.30;;;;;;;-146.25;74.11;52055.97;2063321;28;33180;-69
2023/07/01 02:41:57;;;;;;;7.47;3.55;;;;;;;-146.25;74.20;52088.41;2063525;28;20046;-70
2023/07/01 02:42:59;;;;;;;5.40;3.10;;;;;;;-146.25;74.13;52096.50;2063172;28;34504;-69
2023/07/01 02:44:00;;;;;;;4.50;3.42;;;;;;;-146.25;73.88;52076.22;2064102;28;21051;-70
2023/07/01 02:45:04;;;;;;;6.55;3.42;;;;;;;-146.25;74.44;52080.28;2063431;28;29868;-70
2023/07/01 02:46:06;;;;;;;7.40;2.78;;;;;;;-146.25;74.35;52100.56;2070810;28;32928;-71
2023/07/01 02:47:08;;;;;;;4.95;3.53;;;;;;;-146.25;74.34;52068.13;2070325;28;32758;-69
2023/07/01 02:48:10;;;;;;;5.30;3.10;;;;;;;-146.25;73.93;52051.91;2070750;28;29864;-70
2023/07/01 02:49:14;;;;;;;4.63;2.85;;;;;;;-146.25;73.58;52058.00;2062731;28;20074;-69
2023/07/01 02:50:16;;;;;;;6.30;3.03;;;;;;;-146.25;73.47;52060.00;2063041;28;20169;-69
2023/07/01 02:51:21;;;;;;;5.13;3.00;;;;;;;-146.25;73.53;52076.22;2070933;28;20247;-70
2023/07/01 02:52:23;;;;;;;6.68;2.88;;;;;;;-146.25;73.51;52102.59;2064398;28;20165;-68
2023/07/01 02:53:27;;;;;;;7.10;3.00;;;;;;;-146.25;73.58;52064.06;2064553;28;21589;-70
2023/07/01 02:54:29;;;;;;;5.22;2.80;;;;;;;-146.25;73.54;52066.09;2072629;28;20043;-71
2023/07/01 02:55:31;;;;;;;5.50;3.17;;;;;;;-146.25;73.54;52053.94;2065459;28;20914;-70
2023/07/01 02:56:33;;;;;;;6.22;2.95;;;;;;;-146.25;73.39;52060.00;2065396;28;20190;-70
2023/07/01 02:57:35;;;;;;;6.85;2.95;;;;;;;-146.25;73.03;52076.22;2065516;28;25898;-69
2023/07/01 02:58:36;;;;;;;6.47;2.92;;;;;;;-146.25;73.13;52051.91;2064950;28;26214;-70
2023/07/01 02:59:38;;;;;;;5.72;3.15;;;;;;;-146.25;73.05;52080.28;2064354;28;31054;-69
2023/07/01 03:00:40;;;;;;;7.18;3.20;;;;;;;-146.25;72.92;52092.44;2065381;28;20154;-70
2023/07/01 03:01:45;;;;;;;6.30;3.10;;;;;;;-146.25;73.03;52102.59;2065045;28;20249;-70
2023/07/01 03:02:51;;;;;;;7.78;2.80;;;;;;;-146.25;73.31;52084.34;2064715;28;21819;-70
2023/07/01 03:03:53;;;;;;;5.78;3.10;;;;;;;-146.25;72.90;52055.97;2072580;28;20106;-69
2023/07/01 03:04:58;;;;;;;5.78;2.97;;;;;;;-146.25;72.51;52062.03;2072101;28;26116;-70
2023/07/01 03:06:00;;;;;;;5.47;2.42;;;;;;;-146.25;71.95;52088.41;2072401;28;20489;-69
2023/07/01 03:07:04;;;;;;;4.82;2.97;;;;;;;-146.25;72.87;52096.50;2072659;28;20252;-70
2023/07/01 03:08:07;;;;;;;5.80;2.60;;;;;;;-146.25;72.58;52098.53;2072539;28;20819;-70
2023/07/01 03:09:08;;;;;;;4.80;2.70;;;;;;;-146.25;72.45;52055.97;2072470;28;21835;-71
2023/07/01 03:10:13;;;;;;;6.53;2.90;;;;;;;-146.25;72.41;52031.63;2072490;28;20172;-69
2023/07/01 03:11:15;;;;;;;4.38;2.55;;;;;;;-146.25;72.35;52084.34;2072034;28;35592;-70
2023/07/01 03:12:17;;;;;;;6.22;2.30;;;;;;;-146.25;72.24;52066.09;2071707;28;32934;-70
2023/07/01 03:13:18;;;;;;;3.70;2.35;;;;;;;-146.25;72.45;52068.13;2072584;28;20169;-70
2023/07/01 03:14:20;;;;;;;5.45;2.13;;;;;;;-146.25;72.23;52080.28;2065009;28;20053;-70
2023/07/01 03:15:25;;;;;;;6.93;2.70;;;;;;;-146.25;72.05;52072.19;2064821;28;26952;-70
2023/07/01 03:16:26;;;;;;;4.78;2.47;;;;;;;-146.25;71.75;52060.00;2064550;28;28598;-70
2023/07/01 03:17:31;;;;;;;8.73;2.50;;;;;;;-146.25;71.55;52080.28;2065348;28;20105;-71
2023/07/01 03:18:33;;;;;;;5.55;2.50;;;;;;;-146.25;72.03;52086.38;2065059;28;20043;-70
2023/07/01 03:19:40;;;;;;;6.05;2.33;;;;;;;-146.25;71.68;52051.91;2065812;28;20847;-69
2023/07/01 03:20:42;;;;;;;5.88;2.97;;;;;;;-146.25;71.52;52094.47;2072454;28;20050;-70
2023/07/01 03:21:45;;;;;;;5.55;2.55;;;;;;;-146.25;71.34;52064.06;2064381;28;20046;-70
2023/07/01 03:22:51;;;;;;;7.15;2.65;;;;;;;-146.25;71.72;52064.06;2064353;28;20161;-70
2023/07/01 03:23:52;;;;;;;5.03;2.28;;;;;;;-146.25;71.21;52092.44;2064230;28;33533;-70
2023/07/01 03:24:55;;;;;;;9.48;2.35;;;;;;;-146.25;71.03;52070.16;2064237;28;20174;-70
2023/07/01 03:25:56;;;;;;;5.38;2.60;;;;;;;-146.25;71.05;52060.00;2072615;28;20080;-70
2023/07/01 03:27:02;;;;;;;8.10;3.05;;;;;;;-146.25;71.69;52035.69;2071949;28;20051;-70
2023/07/01 03:28:04;;;;;;;6.13;2.80;;;;;;;-146.25;71.61;52062.03;2072606;28;20181;-70
2023/07/01 03:29:06;;;;;;;5.90;2.42;;;;;;;-146.25;71.10;52035.69;2072015;28;20038;-71
2023/07/01 03:30:13;;;;;;;5.68;2.65;;;;;;;-146.25;71.04;52037.72;2072742;28;20918;-71
2023/07/01 03:31:17;;;;;;;5.47;2.42;;;;;;;-146.25;70.62;52072.19;2071970;28;20158;-70
2023/07/01 03:32:18;;;;;;;4.93;2.22;;;;;;;-146.25;70.98;52104.63;2072196;28;32387;-71
2023/07/01 03:33:20;;;;;;;6.15;2.63;;;;;;;-146.25;71.42;52088.41;2064079;28;36499;-71
2023/07/01 03:34:22;;;;;;;5.53;2.67;;;;;;;-146.25;71.20;52049.88;2065243;28;20909;-71
2023/07/01 03:35:24;;;;;;;5.50;2.33;;;;;;;-146.25;71.62;52092.44;2064284;28;36967;-71
2023/07/01 03:36:26;;;;;;;6.90;2.88;;;;;;;-146.25;72.08;52096.50;2064669;28;33052;-71
2023/07/01 03:37:28;;;;;;;5.85;2.72;;;;;;;-146.25;72.18;52100.56;2064455;28;28196;-71
2023/07/01 03:38:29;;;;;;;7.07;2.50;;;;;;;-146.25;72.88;52084.34;2064400;28;38027;-71
2023/07/01 03:39:31;;;;;;;5.53;2.58;;;;;;;-146.25;73.46;52094.47;2064750;28;21717;-71
2023/07/01 03:40:33;;;;;;;10.13;2.47;;;;;;;-146.25;72.92;52090.44;2064315;28;34364;-71
2023/07/01 03:41:35;;;;;;;5.32;2.45;;;;;;;-146.25;73.33;52053.94;2063971;28;37252;-70
2023/07/01 03:42:45;;;;;;;7.82;2.70;;;;;;;-146.25;74.41;52076.22;2064998;28;34314;-71
2023/07/01 03:43:49;;;;;;;5.82;2.75;;;;;;;-146.25;74.89;52021.50;2064566;28;32136;-70
2023/07/01 03:44:51;;;;;;;5.63;2.58;;;;;;;-146.25;74.93;52064.06;2064485;28;36849;-70
2023/07/01 03:45:56;;;;;;;4.70;2.78;;;;;;;-146.25;75.90;52100.56;2064662;28;20259;-71
2023/07/01 03:47:00;;;;;;;8.18;3.00;;;;;;;-146.25;75.73;52106.66;2064350;28;37465;-70
2023/07/01 03:48:05;;;;;;;5.32;2.70;;;;;;;-146.25;78.52;52092.44;2064130;28;35006;-70
2023/07/01 03:49:07;;;;;;;7.32;3.28;;;;;;;-146.25;78.46;52060.00;2064303;28;36742;-70
2023/07/01 03:50:10;;;;;;;6.13;2.63;;;;;;;-146.25;78.88;52062.03;2064277;28;36253;-70
2023/07/01 03:51:12;;;;;;;7.28;3.45;;;;;;;-146.25;80.17;52035.69;2065164;28;20047;-70
2023/07/01 03:52:15;;;;;;;7.63;3.28;;;;;;;-146.25;81.34;52060.00;2064016;28;36238;-71
2023/07/01 03:53:17;;;;;;;6.65;3.55;;;;;;;-146.25;83.32;52078.25;2064260;28;37528;-70
2023/07/01 03:54:19;;;;;;;5.93;3.10;;;;;;;-146.25;82.72;52066.09;2064289;28;20128;-70
2023/07/01 03:55:23;;;;;;;10.40;3.42;;;;;;;-146.25;83.36;52066.09;2064385;28;38600;-71
2023/07/01 03:56:25;;;;;;;4.90;3.13;;;;;;;-146.25;83.57;52080.28;2064486;28;20042;-71
2023/07/01 03:57:27;;;;;;;8.43;4.07;;;;;;;-146.25;85.59;52090.44;2064311;28;35809;-71
2023/07/01 03:58:29;;;;;;;6.10;3.60;;;;;;;-146.25;86.56;52088.41;2064213;28;33166;-71
2023/07/01 03:59:32;;;;;;;7.10;3.65;;;;;;;-146.25;86.71;52104.63;2064664;28;34236;-71
2023/07/01 04:00:35;;;;;;;5.97;3.10;;;;;;;-146.25;86.18;52064.06;2063783;28;36602;-72
2023/07/01 04:01:37;;;;;;;6.38;3.22;;;;;;;-146.25;87.66;52064.06;2064390;28;33738;-73
2023/07/01 04:02:39;;;;;;;5.88;3.40;;;;;;;-146.25;89.17;52104.63;2071555;28;28738;-74
2023/07/01 04:03:41;;;;;;;6.45;3.42;;;;;;;-146.25;88.56;52112.72;2070445;28;36465;-73
2023/07/01 04:04:45;;;;;;;9.57;3.90;;;;;;;-146.25;87.75;52084.34;2065062;28;20039;-73
2023/07/01 04:05:47;;;;;;;4.78;2.80;;;;;;;-146.25;88.14;52086.38;2064288;28;35112;-73
2023/07/01 04:06:52;;;;;;;5.88;3.35;;;;;;;-146.25;88.23;52060.00;2063955;28;30926;-73
2023/07/01 04:07:54;;;;;;;6.28;3.20;;;;;;;-146.25;87.46;52104.63;2064696;28;34055;-72
2023/07/01 04:08:55;;;;;;;6.30;3.10;;;;;;;-146.25;87.53;52076.22;2064012;28;37913;-73
2023/07/01 04:09:57;;;;;;;7.68;3.70;;;;;;;-146.25;87.92;52102.59;2065069;28;20039;-72
2023/07/01 04:11:01;;;;;;;6.18;3.22;;;;;;;-146.25;87.03;52112.72;2064806;28;20043;-72
2023/07/01 04:12:05;;;;;;;6.00;3.13;;;;;;;-146.25;86.50;52076.22;2064094;28;34016;-72
2023/07/01 04:13:06;;;;;;;7.18;3.20;;;;;;;-146.25;87.14;52118.81;2063779;28;33792;-72
2023/07/01 04:14:11;;;;;;;8.15;3.28;;;;;;;-146.25;87.73;52096.50;2064173;28;36543;-72
2023/07/01 04:15:14;;;;;;;5.43;2.97;;;;;;;-146.25;87.59;52055.97;2064179;28;30735;-72
2023/07/01 04:16:16;;;;;;;3.65;2.65;;;;;;;-146.25;86.75;52090.44;2064748;28;20046;-71
2023/07/01 04:17:20;;;;;;;5.68;3.20;;;;;;;-146.25;87.85;52108.66;2064693;28;20928;-72
2023/07/01 04:18:22;;;;;;;5.30;2.80;;;;;;;-146.25;87.04;52114.75;2064969;28;20050;-72
2023/07/01 04:19:26;;;;;;;5.30;3.13;;;;;;;-146.25;86.98;52064.06;2063809;28;38682;-73
2023/07/01 04:20:29;;;;;;;7.35;3.03;;;;;;;-146.25;88.08;52082.31;2064612;28;20090;-73
2023/07/01 04:21:30;;;;;;;8.63;3.28;;;;;;;-146.25;87.72;52072.19;2064666;28;20808;-73
2023/07/01 04:22:32;;;;;;;6.00;3.25;;;;;;;-146.25;87.35;52106.66;2064203;28;37034;-74
2023/07/01 04:23:37;;;;;;;8.13;3.33;;;;;;;-146.25;87.47;52060.00;2063712;28;33859;-73
2023/07/01 04:24:38;;;;;;;7.07;3.70;;;;;;;-146.25;88.27;52102.59;2064030;28;35143;-73
2023/07/01 04:25:45;;;;;;;4.63;3.15;;;;;;;-146.25;86.65;52110.69;2063946;28;37286;-73
2023/07/01 04:26:47;;;;;;;7.93;3.28;;;;;;;-146.25;87.14;52104.63;2065289;28;20800;-73
2023/07/01 04:27:49;;;;;;;5.63;3.10;;;;;;;-146.25;87.37;52118.81;2063777;28;40109;-73
2023/07/01 04:28:50;;;;;;;5.85;2.90;;;;;;;-146.25;86.80;52094.47;2064382;28;30699;-72
2023/07/01 04:29:52;;;;;;;8.25;3.42;;;;;;;-146.25;86.96;52116.78;2063991;28;33325;-73
2023/07/01 04:30:54;;;;;;;8.63;3.80;;;;;;;-146.25;86.82;52106.66;2064935;28;36153;-72
2023/07/01 04:31:56;;;;;;;4.90;3.28;;;;;;;-146.25;86.69;52064.06;2064212;28;31112;-71
2023/07/01 04:32:57;;;;;;;6.93;3.25;;;;;;;-146.25;85.86;52084.34;2064389;28;33876;-72
2023/07/01 04:33:59;;;;;;;9.02;2.90;;;;;;;-146.25;86.00;52104.63;2063596;28;35974;-72
2023/07/01 04:35:01;;;;;;;7.00;3.17;;;;;;;-146.25;86.02;52124.91;2064856;28;20800;-72
2023/07/01 04:36:03;;;;;;;3.80;3.30;;;;;;;-146.25;86.64;52104.63;2063873;28;34663;-72
2023/07/01 04:37:05;;;;;;;6.85;2.80;;;;;;;-146.25;85.93;52076.22;2064395;28;35400;-72
2023/07/01 04:38:10;;;;;;;6.70;3.33;;;;;;;-146.25;86.03;52104.63;2063854;28;35252;-72
2023/07/01 04:39:12;;;;;;;5.05;2.90;;;;;;;-146.25;85.29;52108.66;2064152;28;37306;-72
2023/07/01 04:40:18;;;;;;;6.78;3.28;;;;;;;-146.25;84.98;52090.44;2064520;28;20832;-71
2023/07/01 04:41:19;;;;;;;4.82;2.92;;;;;;;-146.25;83.91;52053.94;2063873;28;35123;-72
2023/07/01 04:42:24;;;;;;;6.13;2.95;;;;;;;-146.25;84.67;52100.56;2063558;28;36922;-72
2023/07/01 04:43:26;;;;;;;6.38;3.13;;;;;;;-146.25;84.88;52084.34;2064777;28;20766;-72
2023/07/01 04:44:28;;;;;;;6.45;2.90;;;;;;;-146.25;85.14;52086.38;2064011;28;33706;-72
2023/07/01 04:45:33;;;;;;;6.45;3.08;;;;;;;-146.25;84.96;52088.41;2063579;28;36801;-72
2023/07/01 04:46:37;;;;;;;5.35;2.95;;;;;;;-146.25;84.32;52102.59;2063947;28;33671;-71
2023/07/01 04:47:39;;;;;;;7.38;2.90;;;;;;;-146.25;84.39;52112.72;2063842;28;35186;-72
2023/07/01 04:48:43;;;;;;;7.97;3.53;;;;;;;-146.25;83.72;52086.38;2071927;28;21749;-72
2023/07/01 04:49:45;;;;;;;4.85;2.90;;;;;;;-146.25;81.70;52086.38;2071417;28;33266;-72
2023/07/01 04:50:47;;;;;;;5.15;2.38;;;;;;;-146.25;81.05;52120.84;2063535;28;36451;-72
2023/07/01 04:51:49;;;;;;;6.82;2.67;;;;;;;-146.25;81.30;52090.44;2064137;28;36478;-73
2023/07/01 04:52:51;;;;;;;4.68;2.38;;;;;;;-146.25;81.90;52104.63;2063799;28;33677;-73
2023/07/01 04:53:53;;;;;;;6.63;3.00;;;;;;;-146.25;82.09;52096.50;2064104;28;34300;-72